createdAt,value
2022-11-25T00:00:27.355Z,100553.25
2022-11-25T00:02:30.225Z,100556.66
2022-11-25T00:04:37.075Z,100556.09
2022-11-25T00:06:40.138Z,100554.31
2022-11-25T00:08:44.421Z,100556.03
2022-11-25T00:10:47.193Z,100547.44
2022-11-25T00:12:50.013Z,100544.19
2022-11-25T00:14:53.362Z,100543.34
2022-11-25T00:16:56.270Z,100533.09
2022-11-25T00:18:59.579Z,100542.56
2022-11-25T00:21:09.087Z,100532.28
2022-11-25T00:23:11.888Z,100535.72
2022-11-25T00:25:14.930Z,100534.13
2022-11-25T00:27:17.767Z,100534.13
2022-11-25T00:29:20.578Z,100543.69
2022-11-25T00:31:25.459Z,100534.84
2022-11-25T00:33:28.145Z,100540.69
2022-11-25T00:35:31.054Z,100537.31
2022-11-25T00:37:35.249Z,100531.41
2022-11-25T00:39:40.759Z,100534.00
2022-11-25T00:42:02.017Z,100543.47
2022-11-25T00:44:22.772Z,100541.69
2022-11-25T00:46:25.650Z,100539.88
2022-11-25T00:48:28.414Z,100539.22
2022-11-25T00:50:31.238Z,100541.06
2022-11-25T00:52:36.991Z,100542.09
2022-11-25T00:54:39.777Z,100539.44
2022-11-25T00:56:42.599Z,100543.03
2022-11-25T00:58:46.090Z,100549.91
2022-11-25T01:00:48.999Z,100544.59
2022-11-25T01:02:51.897Z,100548.91
2022-11-25T01:04:54.676Z,100539.41
2022-11-25T01:06:59.777Z,100545.38
2022-11-25T01:09:04.747Z,100540.25
2022-11-25T01:11:08.323Z,100542.56
2022-11-25T01:13:11.193Z,100555.38
2022-11-25T01:15:14.023Z,100550.34
2022-11-25T01:17:16.819Z,100558.00
2022-11-25T01:19:20.685Z,100562.25
2022-11-25T01:21:25.686Z,100562.34
2022-11-25T01:23:29.251Z,100564.63
2022-11-25T01:25:33.480Z,100572.44
2022-11-25T01:27:36.385Z,100567.31
2022-11-25T01:29:41.444Z,100567.41
2022-11-25T01:31:44.764Z,100573.44
2022-11-25T01:33:49.065Z,100571.75
2022-11-25T01:35:52.082Z,100574.28
2022-11-25T01:37:54.845Z,100570.88
2022-11-25T01:40:00.191Z,100563.34
2022-11-25T01:42:04.610Z,100570.25
2022-11-25T01:44:11.651Z,100569.22
2022-11-25T01:46:25.304Z,100566.66
2022-11-25T01:48:40.831Z,100565.75
2022-11-25T01:50:44.392Z,100568.84
2022-11-25T01:52:51.819Z,100562.31
2022-11-25T01:54:58.270Z,100570.81
2022-11-25T01:57:05.872Z,100563.78
2022-11-25T01:59:08.756Z,100570.72
2022-11-25T02:01:11.971Z,100565.59
2022-11-25T02:03:15.043Z,100570.81
2022-11-25T02:05:22.702Z,100572.63
2022-11-25T02:07:31.924Z,100570.09
2022-11-25T02:09:35.969Z,100567.84
2022-11-25T02:11:42.879Z,100560.84
2022-11-25T02:13:49.936Z,100563.50
2022-11-25T02:15:53.122Z,100563.50
2022-11-25T02:17:56.049Z,100553.97
2022-11-25T02:20:03.758Z,100561.00
2022-11-25T02:22:12.671Z,100570.44
2022-11-25T02:24:23.954Z,100571.44
2022-11-25T02:26:28.428Z,100571.38
2022-11-25T02:28:33.406Z,100573.25
2022-11-25T02:30:39.132Z,100563.72
2022-11-25T02:32:45.283Z,100569.72
2022-11-25T02:34:49.068Z,100557.69
2022-11-25T02:36:52.836Z,100556.94
2022-11-25T02:38:57.965Z,100552.00
2022-11-25T02:41:08.672Z,100554.34
2022-11-25T02:43:13.376Z,100546.41
2022-11-25T02:45:18.912Z,100549.28
2022-11-25T02:47:21.736Z,100549.06
2022-11-25T02:49:24.521Z,100542.94
2022-11-25T02:51:31.588Z,100542.72
2022-11-25T02:53:35.194Z,100556.59
2022-11-25T02:55:38.112Z,100549.00
2022-11-25T02:57:42.157Z,100544.75
2022-11-25T02:59:46.321Z,100541.41
2022-11-25T03:01:50.459Z,100543.13
2022-11-25T03:03:53.379Z,100550.97
2022-11-25T03:05:56.294Z,100550.88
2022-11-25T03:08:00.748Z,100545.69
2022-11-25T03:10:05.134Z,100545.78
2022-11-25T03:12:22.698Z,100554.50
2022-11-25T03:14:29.295Z,100550.22
2022-11-25T03:16:33.564Z,100557.06
2022-11-25T03:18:36.558Z,100552.78
2022-11-25T03:20:39.570Z,100550.09
2022-11-25T03:22:43.287Z,100554.59
2022-11-25T03:24:46.122Z,100552.03
2022-11-25T03:26:49.063Z,100550.91
2022-11-25T03:28:51.905Z,100543.34
2022-11-25T03:30:54.713Z,100545.78
2022-11-25T03:32:59.025Z,100538.00
2022-11-25T03:35:03.162Z,100540.81
2022-11-25T03:37:06.088Z,100535.66
2022-11-25T03:39:09.406Z,100539.81
2022-11-25T03:41:14.823Z,100538.03
2022-11-25T03:43:18.535Z,100534.56
2022-11-25T03:45:21.404Z,100538.78
2022-11-25T03:47:24.297Z,100535.38
2022-11-25T03:49:28.588Z,100542.38
2022-11-25T03:51:31.501Z,100531.28
2022-11-25T03:53:35.681Z,100527.03
2022-11-25T03:55:41.049Z,100532.19
2022-11-25T03:57:43.871Z,100528.84
2022-11-25T03:59:47.635Z,100533.09
2022-11-25T04:01:51.272Z,100539.19
2022-11-25T04:03:54.146Z,100538.50
2022-11-25T04:05:58.339Z,100547.84
2022-11-25T04:08:01.270Z,100541.13
2022-11-25T04:10:04.933Z,100541.03
2022-11-25T04:12:28.509Z,100547.19
2022-11-25T04:14:38.827Z,100547.94
2022-11-25T04:16:41.902Z,100542.25
2022-11-25T04:18:45.010Z,100542.97
2022-11-25T04:20:48.021Z,100547.34
2022-11-25T04:22:52.162Z,100539.63
2022-11-25T04:24:55.855Z,100547.28
2022-11-25T04:27:01.814Z,100554.22
2022-11-25T04:29:05.074Z,100547.44
2022-11-25T04:31:08.555Z,100549.94
2022-11-25T04:33:14.289Z,100543.06
2022-11-25T04:35:18.688Z,100547.56
2022-11-25T04:37:33.520Z,100546.56
2022-11-25T04:39:37.639Z,100540.63
2022-11-25T04:41:46.761Z,100536.31
2022-11-25T04:43:50.362Z,100522.75
2022-11-25T04:48:16.882Z,100502.69
2022-11-25T04:50:21.503Z,100498.13
2022-11-25T04:52:44.581Z,100487.88
2022-11-25T04:54:48.773Z,100487.00
2022-11-25T04:56:51.777Z,100491.25
2022-11-25T04:59:12.625Z,100485.84
2022-11-25T05:01:20.005Z,100492.88
2022-11-25T05:03:25.828Z,100508.78
2022-11-25T05:05:28.697Z,100525.25
2022-11-25T05:07:31.702Z,100534.53
2022-11-25T05:09:35.309Z,100543.75
2022-11-25T05:11:53.005Z,100534.47
2022-11-25T05:13:57.300Z,100531.38
2022-11-25T05:16:00.896Z,100531.56
2022-11-25T05:18:04.185Z,100538.47
2022-11-25T05:20:20.094Z,100546.13
2022-11-25T05:22:26.319Z,100553.47
2022-11-25T05:24:29.366Z,100562.06
2022-11-25T05:26:33.285Z,100551.25
2022-11-25T05:28:38.091Z,100557.53
2022-11-25T05:30:41.030Z,100553.31
2022-11-25T05:32:44.720Z,100547.38
2022-11-25T05:34:47.985Z,100550.13
2022-11-25T05:36:51.884Z,100554.59
2022-11-25T05:38:56.624Z,100549.50
2022-11-25T05:41:11.659Z,100554.00
2022-11-25T05:43:16.436Z,100565.25
2022-11-25T05:45:20.687Z,100569.00
2022-11-25T05:47:24.507Z,100566.47
2022-11-25T05:49:27.358Z,100554.50
2022-11-25T05:51:30.534Z,100565.47
2022-11-25T05:53:36.271Z,100573.28
2022-11-25T05:55:39.294Z,100580.16
2022-11-25T05:57:49.341Z,100570.72
2022-11-25T05:59:52.478Z,100580.25
2022-11-25T06:02:01.156Z,100578.75
2022-11-25T06:04:05.604Z,100578.69
2022-11-25T06:06:09.086Z,100588.31
2022-11-25T06:08:12.541Z,100580.56
2022-11-25T06:10:15.639Z,100583.22
2022-11-25T06:12:21.181Z,100587.53
2022-11-25T06:14:25.353Z,100579.72
2022-11-25T06:16:28.449Z,100587.50
2022-11-25T06:18:54.678Z,100584.19
2022-11-25T06:20:58.622Z,100595.16
2022-11-25T06:23:01.594Z,100595.84
2022-11-25T06:25:09.546Z,100605.47
2022-11-25T06:27:14.120Z,100607.13
2022-11-25T06:29:17.315Z,100608.13
2022-11-25T06:31:26.273Z,100605.84
2022-11-25T06:33:38.167Z,100601.69
2022-11-25T06:35:44.919Z,100607.97
2022-11-25T06:37:47.679Z,100611.22
2022-11-25T06:39:50.507Z,100620.59
2022-11-25T06:41:53.243Z,100626.53
2022-11-25T06:43:56.406Z,100630.03
2022-11-25T06:46:04.420Z,100635.16
2022-11-25T06:48:07.273Z,100636.16
2022-11-25T06:50:10.820Z,100636.34
2022-11-25T06:52:14.995Z,100633.53
2022-11-25T06:54:18.254Z,100636.91
2022-11-25T06:56:23.396Z,100642.00
2022-11-25T06:58:35.840Z,100633.16
2022-11-25T07:00:39.363Z,100642.50
2022-11-25T07:02:48.017Z,100649.63
2022-11-25T07:04:51.575Z,100649.75
2022-11-25T07:06:54.383Z,100647.31
2022-11-25T07:08:59.047Z,100647.09
2022-11-25T07:11:07.294Z,100663.25
2022-11-25T07:13:10.427Z,100659.78
2022-11-25T07:15:13.473Z,100654.69
2022-11-25T07:17:16.289Z,100648.75
2022-11-25T07:20:01.262Z,100653.34
2022-11-25T07:22:04.163Z,100634.84
2022-11-25T07:24:09.421Z,100631.94
2022-11-25T07:26:14.965Z,100631.75
2022-11-25T07:28:17.759Z,100634.94
2022-11-25T07:32:43.674Z,100637.50
2022-11-25T07:34:46.473Z,100634.84
2022-11-25T07:36:51.618Z,100651.03
2022-11-25T07:38:55.016Z,100656.06
2022-11-25T07:41:05.335Z,100654.53
2022-11-25T07:43:08.142Z,100655.34
2022-11-25T07:45:11.351Z,100657.06
2022-11-25T07:47:20.200Z,100650.25
2022-11-25T07:49:25.840Z,100651.25
2022-11-25T07:51:30.875Z,100651.09
2022-11-25T07:53:33.691Z,100655.47
2022-11-25T07:55:37.703Z,100666.53
2022-11-25T07:57:41.895Z,100666.66
2022-11-25T07:59:44.659Z,100663.97
2022-11-25T08:01:49.929Z,100659.75
2022-11-25T08:03:53.509Z,100664.09
2022-11-25T08:06:00.612Z,100667.34
2022-11-25T08:08:03.489Z,100676.78
2022-11-25T08:10:07.309Z,100671.75
2022-11-25T08:12:10.041Z,100679.69
2022-11-25T08:14:14.722Z,100675.56
2022-11-25T08:16:19.930Z,100677.16
2022-11-25T08:18:22.776Z,100670.50
2022-11-25T08:20:25.876Z,100672.94
2022-11-25T08:22:29.394Z,100679.00
2022-11-25T08:24:32.308Z,100679.88
2022-11-25T08:26:37.974Z,100685.22
2022-11-25T08:28:42.216Z,100683.59
2022-11-25T08:30:46.379Z,100685.50
2022-11-25T08:32:49.229Z,100678.91
2022-11-25T08:34:53.188Z,100680.47
2022-11-25T08:36:56.369Z,100682.00
2022-11-25T08:39:01.607Z,100674.47
2022-11-25T08:41:04.589Z,100689.03
2022-11-25T08:43:07.393Z,100692.22
2022-11-25T08:45:11.448Z,100699.88
2022-11-25T08:47:15.549Z,100698.97
2022-11-25T08:49:19.763Z,100703.56
2022-11-25T08:51:24.812Z,100704.56
2022-11-25T08:53:27.633Z,100710.03
2022-11-25T08:55:30.490Z,100697.28
2022-11-25T08:57:33.427Z,100695.56
2022-11-25T08:59:36.810Z,100692.41
2022-11-25T09:01:39.893Z,100700.56
2022-11-25T09:03:47.462Z,100700.88
2022-11-25T09:05:51.631Z,100707.78
2022-11-25T09:07:54.483Z,100717.97
2022-11-25T09:09:57.414Z,100712.13
2022-11-25T09:12:00.257Z,100708.09
2022-11-25T09:14:03.184Z,100712.59
2022-11-25T09:16:07.148Z,100709.44
2022-11-25T09:18:11.144Z,100714.56
2022-11-25T09:20:15.428Z,100719.66
2022-11-25T09:22:18.196Z,100728.47
2022-11-25T09:24:21.195Z,100736.84
2022-11-25T09:26:25.623Z,100735.63
2022-11-25T09:28:28.485Z,100733.03
2022-11-25T09:30:32.328Z,100735.63
2022-11-25T09:32:35.144Z,100732.44
2022-11-25T09:34:38.360Z,100741.88
2022-11-25T09:36:42.776Z,100745.06
2022-11-25T09:38:45.720Z,100739.06
2022-11-25T09:40:55.298Z,100741.38
2022-11-25T09:43:22.789Z,100743.59
2022-11-25T09:45:47.328Z,100749.59
2022-11-25T09:48:00.796Z,100743.75
2022-11-25T09:50:19.848Z,100751.47
2022-11-25T09:52:31.970Z,100756.03
2022-11-25T09:54:40.595Z,100758.50
2022-11-25T09:56:47.439Z,100767.81
2022-11-25T09:58:56.814Z,100777.25
2022-11-25T10:01:01.234Z,100776.81
2022-11-25T10:03:11.772Z,100778.84
2022-11-25T10:05:21.019Z,100776.47
2022-11-25T10:07:33.223Z,100776.25
2022-11-25T10:09:36.981Z,100782.38
2022-11-25T10:11:50.866Z,100778.38
2022-11-25T10:13:59.641Z,100781.06
2022-11-25T10:16:08.690Z,100783.91
2022-11-25T10:18:20.046Z,100778.56
2022-11-25T10:20:26.197Z,100784.66
2022-11-25T10:22:33.372Z,100788.91
2022-11-25T10:24:41.027Z,100795.81
2022-11-25T10:26:46.251Z,100795.59
2022-11-25T10:28:53.045Z,100786.84
2022-11-25T10:31:02.207Z,100788.00
2022-11-25T10:33:17.650Z,100785.84
2022-11-25T10:35:22.820Z,100786.84
2022-11-25T10:37:34.402Z,100787.06
2022-11-25T10:39:37.317Z,100787.91
2022-11-25T10:41:47.893Z,100795.03
2022-11-25T10:43:51.402Z,100795.56
2022-11-25T10:46:00.449Z,100789.69
2022-11-25T10:48:14.409Z,100794.22
2022-11-25T10:50:21.166Z,100794.94
2022-11-25T10:52:25.075Z,100789.25
2022-11-25T10:54:30.261Z,100790.34
2022-11-25T10:56:43.898Z,100788.78
2022-11-25T10:58:47.068Z,100789.81
2022-11-25T11:01:05.535Z,100796.00
2022-11-25T11:03:16.279Z,100791.00
2022-11-25T11:05:23.595Z,100802.34
2022-11-25T11:07:28.331Z,100795.47
2022-11-25T11:09:36.595Z,100796.38
2022-11-25T11:11:49.350Z,100806.63
2022-11-25T11:14:00.609Z,100805.50
2022-11-25T11:16:04.468Z,100807.09
2022-11-25T11:18:23.982Z,100801.16
2022-11-25T11:20:28.851Z,100811.66
2022-11-25T11:22:32.878Z,100809.84
2022-11-25T11:24:37.919Z,100811.66
2022-11-25T11:26:41.180Z,100810.06
2022-11-25T11:28:44.124Z,100812.94
2022-11-25T11:30:57.357Z,100813.03
2022-11-25T11:33:07.863Z,100807.94
2022-11-25T11:35:22.106Z,100813.13
2022-11-25T11:37:36.818Z,100804.56
2022-11-25T11:40:00.648Z,100812.44
2022-11-25T11:42:14.452Z,100810.03
2022-11-25T11:44:28.222Z,100810.94
2022-11-25T11:46:42.930Z,100816.19
2022-11-25T11:48:55.994Z,100807.66
2022-11-25T11:51:08.270Z,100820.13
2022-11-25T11:53:18.542Z,100815.72
2022-11-25T11:55:36.097Z,100823.53
2022-11-25T11:57:48.818Z,100824.53
2022-11-25T11:59:55.513Z,100814.31
2022-11-25T12:02:16.371Z,100816.94
2022-11-25T12:04:27.036Z,100821.41
2022-11-25T12:06:34.593Z,100827.56
2022-11-25T12:08:49.281Z,100826.75
2022-11-25T12:10:58.995Z,100823.16
2022-11-25T12:13:13.087Z,100832.84
2022-11-25T12:15:21.355Z,100840.00
2022-11-25T12:17:31.508Z,100833.91
2022-11-25T12:19:40.332Z,100834.81
2022-11-25T12:21:52.606Z,100839.28
2022-11-25T12:24:04.550Z,100836.81
2022-11-25T12:26:14.672Z,100835.34
2022-11-25T12:28:21.916Z,100834.56
2022-11-25T12:30:34.154Z,100846.09
2022-11-25T12:32:49.224Z,100844.69
2022-11-25T12:34:57.699Z,100839.59
2022-11-25T12:37:14.688Z,100839.50
2022-11-25T12:39:25.190Z,100849.03
2022-11-25T12:41:39.537Z,100846.50
2022-11-25T12:43:47.365Z,100855.44
2022-11-25T12:45:58.776Z,100847.81
2022-11-25T12:48:01.802Z,100853.81
2022-11-25T12:50:05.142Z,100859.75
2022-11-25T12:52:20.118Z,100862.53
2022-11-25T12:54:33.875Z,100864.19
2022-11-25T12:56:58.744Z,100875.66
2022-11-25T12:59:34.343Z,100873.81
2022-11-25T13:01:55.379Z,100878.13
2022-11-25T13:04:30.500Z,100881.72
2022-11-25T13:07:07.263Z,100881.00
2022-11-25T13:09:32.017Z,100886.38
2022-11-25T13:12:01.789Z,100881.28
2022-11-25T13:14:17.121Z,100890.03
2022-11-25T13:16:21.513Z,100891.09
2022-11-25T13:18:28.114Z,100894.50
2022-11-25T13:20:49.046Z,100898.88
2022-11-25T13:23:03.428Z,100907.56
2022-11-25T13:25:25.601Z,100904.91
2022-11-25T13:27:54.373Z,100905.63
2022-11-25T13:29:59.372Z,100917.00
2022-11-25T13:32:03.785Z,100911.00
2022-11-25T13:34:26.614Z,100913.56
2022-11-25T13:36:45.616Z,100918.75
2022-11-25T13:39:14.029Z,100911.69
2022-11-25T13:41:38.063Z,100921.34
2022-11-25T13:43:53.327Z,100924.16
2022-11-25T13:45:57.436Z,100932.03
2022-11-25T13:48:07.363Z,100927.84
2022-11-25T13:50:29.012Z,100927.81
2022-11-25T13:52:49.349Z,100936.47
2022-11-25T13:54:54.864Z,100932.97
2022-11-25T13:57:20.902Z,100941.69
2022-11-25T13:59:50.943Z,100945.31
2022-11-25T14:01:55.139Z,100941.56
2022-11-25T14:04:01.010Z,100950.19
2022-11-25T14:06:09.235Z,100945.00
2022-11-25T14:08:21.624Z,100947.56
2022-11-25T14:10:44.994Z,100949.25
2022-11-25T14:13:05.063Z,100961.31
2022-11-25T14:15:30.283Z,100952.63
2022-11-25T14:18:11.334Z,100956.97
2022-11-25T14:20:28.810Z,100955.16
2022-11-25T14:22:54.739Z,100956.09
2022-11-25T14:25:14.449Z,100953.41
2022-11-25T14:27:20.576Z,100962.81
2022-11-25T14:29:28.879Z,100962.75
2022-11-25T14:31:39.088Z,100972.25
2022-11-25T14:33:50.368Z,100971.31
2022-11-25T14:35:59.552Z,100976.41
2022-11-25T14:38:06.557Z,100972.81
2022-11-25T14:40:15.364Z,100970.25
2022-11-25T14:42:22.731Z,100977.06
2022-11-25T14:44:29.540Z,100983.09
2022-11-25T14:46:33.930Z,100990.94
2022-11-25T14:48:36.841Z,101002.19
2022-11-25T14:50:40.382Z,101003.00
2022-11-25T14:52:47.552Z,101004.66
2022-11-25T14:54:51.723Z,101002.84
2022-11-25T14:56:54.642Z,101016.59
2022-11-25T14:58:59.662Z,101016.31
2022-11-25T15:01:06.528Z,101019.84
2022-11-25T15:03:21.213Z,101014.66
2022-11-25T15:05:26.980Z,101021.53
2022-11-25T15:07:31.479Z,101023.22
2022-11-25T15:09:38.886Z,101023.84
2022-11-25T15:11:41.974Z,101023.00
2022-11-25T15:13:46.433Z,101030.91
2022-11-25T15:15:51.438Z,101025.63
2022-11-25T15:17:55.325Z,101030.81
2022-11-25T15:20:03.339Z,101029.91
2022-11-25T15:22:22.526Z,101032.47
2022-11-25T15:24:28.532Z,101036.78
2022-11-25T15:26:33.482Z,101034.09
2022-11-25T15:28:36.700Z,101039.06
2022-11-25T15:30:39.533Z,101037.56
2022-11-25T15:32:42.483Z,101043.06
2022-11-25T15:34:46.270Z,101046.47
2022-11-25T15:36:54.242Z,101051.53
2022-11-25T15:39:14.899Z,101056.47
2022-11-25T15:41:29.024Z,101063.19
2022-11-25T15:43:33.453Z,101059.41
2022-11-25T15:45:44.646Z,101072.31
2022-11-25T15:47:47.789Z,101068.81
2022-11-25T15:49:59.605Z,101073.16
2022-11-25T15:52:08.816Z,101078.25
2022-11-25T15:54:21.351Z,101079.94
2022-11-25T15:56:27.306Z,101078.97
2022-11-25T15:58:30.564Z,101087.50
2022-11-25T16:00:34.648Z,101092.56
2022-11-25T16:02:49.462Z,101085.56
2022-11-25T16:04:52.516Z,101085.47
2022-11-25T16:06:57.687Z,101084.69
2022-11-25T16:09:03.812Z,101076.94
2022-11-25T16:11:18.320Z,101082.91
2022-11-25T16:13:39.739Z,101091.34
2022-11-25T16:15:46.558Z,101086.88
2022-11-25T16:17:49.511Z,101096.38
2022-11-25T16:19:52.645Z,101090.38
2022-11-25T16:22:01.728Z,101093.78
2022-11-25T16:24:19.756Z,101097.28
2022-11-25T16:26:29.135Z,101095.63
2022-11-25T16:28:32.421Z,101092.97
2022-11-25T16:30:38.447Z,101091.28
2022-11-25T16:32:41.216Z,101117.97
2022-11-25T16:34:44.693Z,101114.50
2022-11-25T16:36:47.686Z,101098.06
2022-11-25T16:38:54.196Z,101112.03
2022-11-25T16:40:58.386Z,101109.63
2022-11-25T16:43:01.771Z,101115.88
2022-11-25T16:45:16.307Z,101118.56
2022-11-25T16:47:20.703Z,101122.84
2022-11-25T16:49:23.754Z,101123.72
2022-11-25T16:51:26.750Z,101123.72
2022-11-25T16:53:32.540Z,101127.09
2022-11-25T16:55:36.184Z,101129.72
2022-11-25T16:57:41.930Z,101137.38
2022-11-25T16:59:46.008Z,101150.22
2022-11-25T17:01:49.280Z,101142.22
2022-11-25T17:03:52.488Z,101151.59
2022-11-25T17:05:55.687Z,101153.28
2022-11-25T17:07:58.539Z,101145.50
2022-11-25T17:10:01.399Z,101148.09
2022-11-25T17:12:04.257Z,101152.19
2022-11-25T17:14:16.099Z,101164.34
2022-11-25T17:16:21.770Z,101169.25
2022-11-25T17:18:31.875Z,101170.97
2022-11-25T17:20:34.921Z,101167.50
2022-11-25T17:22:39.481Z,101174.41
2022-11-25T17:24:42.418Z,101175.78
2022-11-25T17:26:48.503Z,101180.91
2022-11-25T17:28:55.768Z,101185.38
2022-11-25T17:30:59.983Z,101184.41
2022-11-25T17:33:05.930Z,101190.38
2022-11-25T17:35:17.390Z,101188.53
2022-11-25T17:37:23.035Z,101191.97
2022-11-25T17:39:25.842Z,101193.56
2022-11-25T17:41:30.034Z,101203.88
2022-11-25T17:43:34.706Z,101204.69
2022-11-25T17:45:37.812Z,101206.44
2022-11-25T17:47:42.080Z,101208.97
2022-11-25T17:49:45.781Z,101202.88
2022-11-25T17:51:48.642Z,101208.78
2022-11-25T17:53:52.774Z,101210.53
2022-11-25T17:55:55.620Z,101221.06
2022-11-25T17:57:58.603Z,101226.41
2022-11-25T18:00:01.583Z,101228.13
2022-11-25T18:02:09.959Z,101226.41
2022-11-25T18:04:17.943Z,101218.66
2022-11-25T18:06:21.013Z,101218.72
2022-11-25T18:08:23.902Z,101225.69
2022-11-25T18:10:28.243Z,101229.13
2022-11-25T18:12:33.909Z,101229.03
2022-11-25T18:14:40.854Z,101240.28
2022-11-25T18:16:43.866Z,101237.59
2022-11-25T18:18:46.807Z,101242.81
2022-11-25T18:20:51.553Z,101247.28
2022-11-25T18:22:54.797Z,101255.97
2022-11-25T18:24:57.507Z,101250.75
2022-11-25T18:27:00.523Z,101263.81
2022-11-25T18:29:04.419Z,101272.19
2022-11-25T18:31:07.828Z,101271.31
2022-11-25T18:33:14.153Z,101278.34
2022-11-25T18:35:19.309Z,101275.91
2022-11-25T18:37:23.733Z,101281.16
2022-11-25T18:39:26.742Z,101282.00
2022-11-25T18:41:29.513Z,101281.28
2022-11-25T18:43:34.684Z,101285.63
2022-11-25T18:45:39.440Z,101292.69
2022-11-25T18:47:42.411Z,101288.06
2022-11-25T18:49:45.205Z,101290.66
2022-11-25T18:51:48.413Z,101298.50
2022-11-25T18:53:52.776Z,101307.09
2022-11-25T18:55:55.621Z,101310.69
2022-11-25T18:57:58.341Z,101309.69
2022-11-25T19:00:31.649Z,101310.38
2022-11-25T19:02:24.471Z,101319.69
2022-11-25T19:04:27.835Z,101322.13
2022-11-25T19:06:31.629Z,101321.38
2022-11-25T19:08:34.513Z,101331.78
2022-11-25T19:10:40.715Z,101331.03
2022-11-25T19:12:46.771Z,101341.41
2022-11-25T19:14:50.984Z,101350.16
2022-11-25T19:16:54.551Z,101347.56
2022-11-25T19:18:57.578Z,101357.13
2022-11-25T19:21:00.432Z,101356.25
2022-11-25T19:23:16.864Z,101359.72
2022-11-25T19:25:19.691Z,101363.16
2022-11-25T19:27:25.450Z,101382.28
2022-11-25T19:29:37.489Z,101380.59
2022-11-25T19:31:43.393Z,101391.81
2022-11-25T19:33:49.655Z,101380.41
2022-11-25T19:35:53.123Z,101390.69
2022-11-25T19:37:55.965Z,101393.16
2022-11-25T19:39:58.798Z,101396.78
2022-11-25T19:42:01.633Z,101401.97
2022-11-25T19:44:05.775Z,101399.38
2022-11-25T19:46:29.086Z,101409.59
2022-11-25T19:48:38.776Z,101410.41
2022-11-25T19:50:44.672Z,101408.69
2022-11-25T19:52:47.798Z,101412.19
2022-11-25T19:54:50.638Z,101421.69
2022-11-25T19:56:53.434Z,101428.66
2022-11-25T19:58:58.032Z,101418.28
2022-11-25T20:01:05.922Z,101425.25
2022-11-25T20:03:16.294Z,101426.22
2022-11-25T20:05:22.651Z,101432.25
2022-11-25T20:07:29.981Z,101433.13
2022-11-25T20:09:32.859Z,101435.72
2022-11-25T20:11:36.705Z,101433.19
2022-11-25T20:13:39.557Z,101445.16
2022-11-25T20:15:44.004Z,101439.16
2022-11-25T20:17:50.015Z,101440.75
2022-11-25T20:19:54.582Z,101439.84
2022-11-25T20:21:57.727Z,101439.75
2022-11-25T20:24:00.972Z,101450.81
2022-11-25T20:26:05.050Z,101456.00
2022-11-25T20:28:16.742Z,101456.38
2022-11-25T20:30:22.084Z,101460.69
2022-11-25T20:32:27.849Z,101464.97
2022-11-25T20:34:37.396Z,101465.06
2022-11-25T20:36:45.135Z,101473.94
2022-11-25T20:38:49.957Z,101476.16
2022-11-25T20:40:56.469Z,101475.22
2022-11-25T20:42:59.378Z,101483.75
2022-11-25T20:45:02.142Z,101488.94
2022-11-25T20:47:12.340Z,101490.56
2022-11-25T20:49:22.903Z,101489.72
2022-11-25T20:51:27.358Z,101495.09
2022-11-25T20:53:32.289Z,101498.50
2022-11-25T20:55:35.293Z,101495.81
2022-11-25T20:57:38.115Z,101493.97
2022-11-25T20:59:40.881Z,101503.53
2022-11-25T21:01:44.904Z,101506.19
2022-11-25T21:03:48.891Z,101502.72
2022-11-25T21:05:52.635Z,101505.31
2022-11-25T21:07:56.918Z,101505.28
2022-11-25T21:10:00.349Z,101512.94
2022-11-25T21:12:03.781Z,101516.22
2022-11-25T21:14:11.259Z,101516.22
2022-11-25T21:16:14.486Z,101518.00
2022-11-25T21:18:17.893Z,101520.53
2022-11-25T21:20:21.158Z,101522.31
2022-11-25T21:22:24.032Z,101524.97
2022-11-25T21:24:33.054Z,101524.00
2022-11-25T21:26:35.965Z,101531.03
2022-11-25T21:28:46.648Z,101543.22
2022-11-25T21:30:49.684Z,101547.59
2022-11-25T21:32:54.495Z,101551.13
2022-11-25T21:34:58.122Z,101547.28
2022-11-25T21:37:01.215Z,101559.44
2022-11-25T21:39:07.685Z,101548.34
2022-11-25T21:41:12.244Z,101557.97
2022-11-25T21:43:21.614Z,101556.31
2022-11-25T21:45:25.109Z,101552.00
2022-11-25T21:47:31.115Z,101548.53
2022-11-25T21:49:33.972Z,101559.72
2022-11-25T21:51:36.833Z,101553.59
2022-11-25T21:53:39.915Z,101553.59
2022-11-25T21:55:43.204Z,101558.72
2022-11-25T21:57:47.477Z,101566.44
2022-11-25T21:59:50.609Z,101565.44
2022-11-25T22:01:55.361Z,101561.78
2022-11-25T22:03:58.202Z,101568.53
2022-11-25T22:06:01.109Z,101566.72
2022-11-25T22:08:04.029Z,101567.44
2022-11-25T22:10:08.485Z,101563.88
2022-11-25T22:12:25.952Z,101566.34
2022-11-25T22:14:37.480Z,101572.31
2022-11-25T22:16:41.399Z,101578.25
2022-11-25T22:18:45.042Z,101566.81
2022-11-25T22:20:52.153Z,101571.88
2022-11-25T22:22:57.151Z,101569.97
2022-11-25T22:24:59.994Z,101574.16
2022-11-25T22:27:03.354Z,101582.63
2022-11-25T22:29:06.120Z,101579.91
2022-11-25T22:31:13.081Z,101583.25
2022-11-25T22:33:16.855Z,101579.72
2022-11-25T22:35:22.082Z,101589.13
2022-11-25T22:37:25.841Z,101595.00
2022-11-25T22:39:28.762Z,101590.59
2022-11-25T22:41:31.552Z,101596.56
2022-11-25T22:43:37.477Z,101594.59
2022-11-25T22:45:40.452Z,101604.84
2022-11-25T22:47:46.170Z,101599.53
2022-11-25T22:49:50.457Z,101610.56
2022-11-25T22:51:53.584Z,101601.66
2022-11-25T22:53:56.353Z,101605.06
2022-11-25T22:55:59.964Z,101617.75
2022-11-25T22:58:04.475Z,101621.94
2022-11-25T23:00:09.717Z,101623.53
2022-11-25T23:02:19.365Z,101632.91
2022-11-25T23:04:23.519Z,101627.66
2022-11-25T23:06:28.009Z,101632.91
2022-11-25T23:08:31.750Z,101632.72
2022-11-25T23:10:34.626Z,101649.16
2022-11-25T23:12:37.502Z,101635.03
2022-11-25T23:14:40.670Z,101638.44
2022-11-25T23:16:43.809Z,101652.22
2022-11-25T23:18:47.791Z,101646.13
2022-11-25T23:20:51.974Z,101646.88
2022-11-25T23:22:54.803Z,101649.38
2022-11-25T23:24:57.622Z,101644.06
2022-11-25T23:27:00.460Z,101647.50
2022-11-25T23:29:03.266Z,101656.81
2022-11-25T23:31:06.501Z,101655.78
2022-11-25T23:33:19.537Z,101653.28
2022-11-25T23:35:28.421Z,101657.47
2022-11-25T23:37:33.157Z,101653.94
2022-11-25T23:39:36.016Z,101657.19
2022-11-25T23:41:39.090Z,101659.78
2022-11-25T23:43:41.892Z,101674.03
2022-11-25T23:45:49.295Z,101683.28
2022-11-25T23:47:54.108Z,101683.94
2022-11-25T23:49:58.275Z,101675.91
2022-11-25T23:52:07.752Z,101681.81
2022-11-25T23:54:15.804Z,101680.84
2022-11-25T23:56:18.717Z,101684.19
2022-11-25T23:58:23.468Z,101685.81
